createdAt,value
2023-03-22T00:00:42.145Z,12.52
2023-03-22T00:03:15.459Z,11.82
2023-03-22T00:05:48.762Z,11.73
2023-03-22T00:08:23.502Z,11.40
2023-03-22T00:10:56.844Z,11.30
2023-03-22T00:13:30.372Z,10.38
2023-03-22T00:16:03.833Z,11.88
2023-03-22T00:18:37.617Z,10.68
2023-03-22T00:21:13.687Z,10.07
2023-03-22T00:23:48.364Z,11.25
2023-03-22T00:26:21.692Z,10.60
2023-03-22T00:28:54.959Z,9.60
2023-03-22T00:31:28.393Z,10.30
2023-03-22T00:34:01.861Z,10.20
2023-03-22T00:36:37.888Z,9.18
2023-03-22T00:39:12.775Z,9.52
2023-03-22T00:41:46.124Z,9.38
2023-03-22T00:44:19.544Z,10.10
2023-03-22T00:46:52.877Z,9.40
2023-03-22T00:49:27.263Z,9.95
2023-03-22T00:52:00.704Z,9.05
2023-03-22T00:54:35.509Z,8.75
2023-03-22T00:57:08.888Z,8.35
2023-03-22T00:59:42.781Z,8.52
2023-03-22T01:02:17.444Z,8.60
2023-03-22T01:04:50.869Z,8.32
2023-03-22T01:07:24.628Z,8.75
2023-03-22T01:12:32.623Z,9.02
2023-03-22T01:15:07.161Z,9.38
2023-03-22T01:17:40.734Z,8.45
2023-03-22T01:20:14.627Z,7.93
2023-03-22T01:22:48.633Z,8.57
2023-03-22T01:25:23.373Z,8.43
2023-03-22T01:27:56.658Z,7.10
2023-03-22T01:30:30.428Z,7.47
2023-03-22T01:35:38.257Z,7.65
2023-03-22T01:38:12.785Z,7.38
2023-03-22T01:40:57.198Z,6.95
2023-03-22T01:43:30.608Z,6.82
2023-03-22T01:46:05.218Z,7.50
2023-03-22T01:51:19.069Z,6.63
2023-03-22T01:54:18.090Z,7.45
2023-03-22T01:56:54.108Z,7.72
2023-03-22T01:59:37.985Z,7.22
2023-03-22T02:02:34.861Z,6.97
2023-03-22T02:05:22.224Z,6.07
2023-03-22T02:07:56.174Z,6.97
2023-03-22T02:10:30.750Z,6.55
2023-03-22T02:13:24.047Z,6.55
2023-03-22T02:16:18.801Z,7.18
2023-03-22T02:19:45.599Z,6.80
2023-03-22T02:22:53.118Z,6.82
2023-03-22T02:26:05.507Z,6.10
2023-03-22T02:28:48.077Z,6.72
2023-03-22T02:32:10.283Z,5.93
2023-03-22T02:35:07.695Z,5.80
2023-03-22T02:38:20.062Z,6.97
2023-03-22T02:41:03.719Z,5.95
2023-03-22T02:43:42.035Z,6.30
2023-03-22T02:46:23.349Z,6.03
2023-03-22T02:49:04.999Z,6.35
2023-03-22T02:51:43.169Z,6.45
2023-03-22T02:54:22.051Z,6.20
2023-03-22T02:57:03.054Z,5.10
2023-03-22T02:59:41.079Z,6.82
2023-03-22T03:02:18.465Z,5.90
2023-03-22T03:04:53.993Z,5.55
2023-03-22T03:07:28.962Z,4.80
2023-03-22T03:10:03.701Z,5.53
2023-03-22T03:12:38.507Z,5.95
2023-03-22T03:15:15.926Z,6.50
2023-03-22T03:18:06.172Z,5.45
2023-03-22T03:20:52.275Z,5.47
2023-03-22T03:23:34.460Z,5.55
2023-03-22T03:26:14.673Z,5.50
2023-03-22T03:28:53.809Z,5.50
2023-03-22T03:31:33.438Z,4.90
2023-03-22T03:34:16.645Z,6.03
2023-03-22T03:36:55.584Z,6.53
2023-03-22T03:39:33.846Z,4.50
2023-03-22T03:42:12.415Z,5.28
2023-03-22T03:44:47.345Z,4.68
2023-03-22T03:47:21.434Z,4.57
2023-03-22T03:49:54.761Z,5.15
2023-03-22T03:52:29.389Z,4.97
2023-03-22T03:55:02.789Z,5.38
2023-03-22T03:57:39.345Z,4.40
2023-03-22T04:00:15.662Z,4.47
2023-03-22T04:03:24.117Z,5.93
2023-03-22T04:06:23.339Z,4.60
2023-03-22T04:09:01.829Z,4.85
2023-03-22T04:11:39.156Z,4.78
2023-03-22T04:16:47.704Z,5.03
2023-03-22T04:19:25.096Z,4.50
2023-03-22T04:21:58.444Z,4.72
2023-03-22T04:24:31.828Z,5.38
2023-03-22T04:27:05.512Z,4.43
2023-03-22T04:30:00.995Z,4.85
2023-03-22T04:32:54.308Z,4.78
2023-03-22T04:35:35.665Z,4.90
2023-03-22T04:38:09.717Z,5.03
2023-03-22T04:43:27.044Z,4.47
2023-03-22T04:46:04.200Z,4.50
2023-03-22T04:48:45.861Z,3.83
2023-03-22T04:51:20.015Z,4.30
2023-03-22T04:54:08.408Z,4.18
2023-03-22T04:56:44.481Z,4.03
2023-03-22T04:59:20.391Z,4.22
2023-03-22T05:01:55.443Z,4.53
2023-03-22T05:04:34.054Z,4.05
2023-03-22T05:07:13.930Z,3.67
2023-03-22T05:09:56.345Z,4.38
2023-03-22T05:15:17.147Z,4.03
2023-03-22T05:17:50.949Z,4.18
2023-03-22T05:20:25.695Z,3.65
2023-03-22T05:23:13.492Z,4.15
2023-03-22T05:25:50.064Z,4.70
2023-03-22T05:28:23.518Z,4.65
2023-03-22T05:31:06.407Z,4.38
2023-03-22T05:33:50.543Z,3.72
2023-03-22T05:36:29.692Z,4.05
2023-03-22T05:39:29.265Z,3.90
2023-03-22T05:42:03.869Z,3.90
2023-03-22T05:44:38.073Z,3.95
2023-03-22T05:47:17.886Z,4.00
2023-03-22T05:50:02.954Z,4.18
2023-03-22T05:52:39.783Z,4.50
2023-03-22T05:55:25.947Z,4.43
2023-03-22T05:58:03.154Z,3.97
2023-03-22T06:00:40.400Z,4.78
2023-03-22T06:03:40.271Z,4.40
2023-03-22T06:06:25.029Z,4.00
2023-03-22T06:09:17.255Z,4.13
2023-03-22T06:11:55.004Z,4.13
2023-03-22T06:14:29.078Z,4.05
2023-03-22T06:17:14.386Z,4.10
2023-03-22T06:22:22.887Z,4.40
2023-03-22T06:24:57.868Z,4.93
2023-03-22T06:27:40.889Z,5.57
2023-03-22T06:30:14.942Z,5.13
2023-03-22T06:33:06.194Z,5.45
2023-03-22T06:35:43.643Z,5.03
2023-03-22T06:38:20.862Z,4.30
2023-03-22T06:40:55.642Z,4.70
2023-03-22T06:43:29.272Z,4.70
2023-03-22T06:46:14.094Z,6.05
2023-03-22T06:48:53.895Z,5.93
2023-03-22T06:51:27.482Z,6.18
2023-03-22T06:54:02.011Z,5.55
2023-03-22T06:56:37.353Z,6.70
2023-03-22T06:59:10.809Z,6.38
2023-03-22T07:01:44.354Z,5.28
2023-03-22T07:04:20.059Z,5.65
2023-03-22T07:06:54.923Z,5.95
2023-03-22T07:09:28.469Z,6.20
2023-03-22T07:12:07.056Z,5.07
2023-03-22T07:14:40.695Z,5.03
2023-03-22T07:17:27.276Z,5.70
2023-03-22T07:20:00.740Z,5.63
2023-03-22T07:22:34.620Z,5.72
2023-03-22T07:25:08.630Z,5.60
2023-03-22T07:27:43.682Z,5.20
2023-03-22T07:30:17.238Z,5.65
2023-03-22T07:32:52.604Z,5.32
2023-03-22T07:35:27.022Z,5.68
2023-03-22T07:38:01.219Z,6.25
2023-03-22T07:40:39.205Z,5.15
2023-03-22T07:43:15.128Z,5.18
2023-03-22T07:46:02.050Z,5.05
2023-03-22T07:49:00.119Z,4.32
2023-03-22T07:51:53.445Z,4.97
2023-03-22T07:54:33.820Z,21.15
2023-03-22T07:57:09.168Z,23.02
2023-03-22T07:59:49.071Z,23.58
2023-03-22T08:02:22.600Z,25.33
2023-03-22T08:04:59.484Z,24.25
2023-03-22T08:07:42.384Z,19.93
2023-03-22T08:10:17.105Z,18.38
2023-03-22T08:12:50.457Z,16.52
2023-03-22T08:15:30.166Z,15.88
2023-03-22T08:18:04.230Z,14.43
2023-03-22T08:20:45.411Z,14.35
2023-03-22T08:23:38.497Z,12.38
2023-03-22T08:26:33.046Z,10.60
2023-03-22T08:29:17.126Z,9.52
2023-03-22T08:31:56.107Z,9.48
2023-03-22T08:34:29.807Z,9.43
2023-03-22T08:37:05.414Z,10.43
2023-03-22T08:39:39.455Z,8.02
2023-03-22T08:42:39.009Z,8.75
2023-03-22T08:47:58.030Z,8.13
2023-03-22T08:50:34.402Z,8.43
2023-03-22T08:53:17.025Z,8.40
2023-03-22T08:55:58.135Z,8.27
2023-03-22T08:58:42.429Z,7.88
2023-03-22T09:01:29.367Z,8.10
2023-03-22T09:04:10.876Z,7.97
2023-03-22T09:06:45.472Z,8.52
2023-03-22T09:09:18.905Z,7.80
2023-03-22T09:11:56.260Z,9.07
2023-03-22T09:14:30.081Z,7.25
2023-03-22T09:17:04.555Z,7.80
2023-03-22T09:19:39.431Z,8.32
2023-03-22T09:22:13.039Z,8.13
2023-03-22T09:24:52.263Z,7.85
2023-03-22T09:27:25.810Z,8.73
2023-03-22T09:29:59.284Z,8.23
2023-03-22T09:32:33.567Z,7.88
2023-03-22T09:35:10.979Z,7.45
2023-03-22T09:37:58.868Z,9.00
2023-03-22T09:40:36.284Z,8.38
2023-03-22T09:43:13.116Z,10.20
2023-03-22T09:45:51.150Z,11.57
2023-03-22T09:48:31.718Z,9.80
2023-03-22T09:51:13.346Z,9.30
2023-03-22T09:53:46.684Z,9.68
2023-03-22T09:56:24.953Z,9.18
2023-03-22T09:59:05.710Z,10.18
2023-03-22T10:01:46.633Z,9.60
2023-03-22T10:04:37.585Z,9.65
2023-03-22T10:07:23.773Z,8.18
2023-03-22T10:10:15.325Z,9.98
2023-03-22T10:12:55.163Z,8.77
2023-03-22T10:15:33.212Z,9.70
2023-03-22T10:18:09.881Z,8.30
2023-03-22T10:20:47.595Z,9.35
2023-03-22T10:23:29.198Z,8.48
2023-03-22T10:26:05.100Z,7.57
2023-03-22T10:28:41.298Z,7.38
2023-03-22T10:31:17.521Z,8.40
2023-03-22T10:33:58.278Z,6.68
2023-03-22T10:36:35.431Z,7.97
2023-03-22T10:39:20.114Z,8.90
2023-03-22T10:41:57.981Z,8.73
2023-03-22T10:44:35.089Z,7.47
2023-03-22T10:47:11.364Z,7.05
2023-03-22T10:49:49.813Z,8.68
2023-03-22T10:52:39.601Z,9.18
2023-03-22T10:55:17.141Z,9.15
2023-03-22T10:58:01.078Z,9.57
2023-03-22T11:00:35.140Z,10.40
2023-03-22T11:03:09.937Z,8.95
2023-03-22T11:05:43.386Z,10.68
2023-03-22T11:08:16.693Z,9.57
2023-03-22T11:10:55.061Z,11.45
2023-03-22T11:13:28.904Z,9.45
2023-03-22T11:18:36.991Z,11.05
2023-03-22T11:21:13.152Z,10.20
2023-03-22T11:23:55.103Z,11.43
2023-03-22T11:26:35.692Z,12.27
2023-03-22T11:29:15.188Z,12.05
2023-03-22T11:31:57.482Z,10.73
2023-03-22T11:34:32.162Z,10.82
2023-03-22T11:37:09.393Z,11.35
2023-03-22T11:39:48.117Z,11.85
2023-03-22T11:42:23.089Z,11.48
2023-03-22T11:44:57.749Z,11.50
2023-03-22T11:47:39.250Z,12.02
2023-03-22T11:50:28.816Z,11.02
2023-03-22T11:53:04.663Z,12.85
2023-03-22T11:55:38.316Z,11.80
2023-03-22T12:01:01.886Z,12.48
2023-03-22T12:03:39.764Z,13.63
2023-03-22T12:06:20.864Z,13.70
2023-03-22T12:08:57.564Z,11.63
2023-03-22T12:11:35.049Z,12.43
2023-03-22T12:14:17.240Z,13.38
2023-03-22T12:16:53.704Z,12.98
2023-03-22T12:19:46.981Z,13.15
2023-03-22T12:22:24.465Z,12.37
2023-03-22T12:24:57.876Z,12.38
2023-03-22T12:27:35.464Z,11.90
2023-03-22T12:30:16.320Z,11.45
2023-03-22T12:32:53.838Z,12.90
2023-03-22T12:35:30.739Z,11.00
2023-03-22T12:38:13.034Z,11.18
2023-03-22T12:40:46.688Z,11.10
2023-03-22T12:43:31.686Z,10.85
2023-03-22T12:46:08.168Z,11.13
2023-03-22T12:48:46.513Z,11.23
2023-03-22T12:51:20.305Z,11.02
2023-03-22T12:53:56.798Z,11.63
2023-03-22T12:56:35.368Z,12.05
2023-03-22T12:59:17.451Z,11.63
2023-03-22T13:01:57.602Z,12.00
2023-03-22T13:04:47.362Z,12.70
2023-03-22T13:07:51.555Z,11.30
2023-03-22T13:10:57.362Z,12.15
2023-03-22T13:13:49.637Z,11.73
2023-03-22T13:16:25.842Z,11.63
2023-03-22T13:19:03.422Z,12.88
2023-03-22T13:21:39.961Z,11.45
2023-03-22T13:24:32.567Z,10.80
2023-03-22T13:27:11.652Z,10.18
2023-03-22T13:29:53.962Z,10.40
2023-03-22T13:32:33.300Z,10.05
2023-03-22T13:35:23.734Z,10.40
2023-03-22T13:38:03.908Z,10.13
2023-03-22T13:40:44.930Z,11.90
2023-03-22T13:43:29.544Z,9.65
2023-03-22T13:46:32.623Z,10.55
2023-03-22T13:49:22.242Z,10.25
2023-03-22T13:52:00.084Z,10.52
2023-03-22T13:54:41.568Z,10.48
2023-03-22T13:57:38.738Z,10.35
2023-03-22T14:00:35.371Z,9.98
2023-03-22T14:03:16.861Z,11.55
2023-03-22T14:05:56.769Z,10.40
2023-03-22T14:08:33.988Z,11.02
2023-03-22T14:11:31.022Z,11.73
2023-03-22T14:14:08.834Z,10.52
2023-03-22T14:16:45.725Z,10.57
2023-03-22T14:19:23.235Z,10.73
